createdAt,value
2019-05-12T00:00:33.936Z,0
2019-05-12T00:01:34.776Z,0
2019-05-12T00:02:34.032Z,0
2019-05-12T00:03:35.064Z,0
2019-05-12T00:04:35.032Z,0
2019-05-12T00:05:35.737Z,0
2019-05-12T00:06:35.844Z,0
2019-05-12T00:07:38.107Z,0
2019-05-12T00:08:38.676Z,0
2019-05-12T00:09:38.970Z,0
2019-05-12T00:10:39.537Z,0
2019-05-12T00:11:39.461Z,0
2019-05-12T00:12:39.580Z,0
2019-05-12T00:13:39.686Z,0
2019-05-12T00:14:39.791Z,0
2019-05-12T00:15:44.217Z,0
2019-05-12T00:16:40.333Z,0
2019-05-12T00:17:41.316Z,0
2019-05-12T00:18:43.363Z,0
2019-05-12T00:19:44.549Z,0
2019-05-12T00:20:44.253Z,0
2019-05-12T00:21:50.637Z,0
2019-05-12T00:22:45.108Z,0
2019-05-12T00:23:49.103Z,0
2019-05-12T00:24:44.506Z,0
2019-05-12T00:25:44.622Z,0
2019-05-12T00:26:44.734Z,0
2019-05-12T00:27:45.128Z,0
2019-05-12T00:28:45.242Z,0
2019-05-12T00:29:48.378Z,0
2019-05-12T00:30:49.559Z,0
2019-05-12T00:31:49.194Z,0
2019-05-12T00:32:49.842Z,0
2019-05-12T00:33:49.198Z,0
2019-05-12T00:34:49.171Z,0
2019-05-12T00:35:49.583Z,0
2019-05-12T00:36:49.985Z,0
2019-05-12T00:37:50.376Z,0
2019-05-12T00:38:51.062Z,0
2019-05-12T00:39:53.104Z,0
2019-05-12T00:40:54.900Z,0
2019-05-12T00:41:55.544Z,0
2019-05-12T00:42:54.297Z,0
2019-05-12T00:43:54.075Z,0
2019-05-12T00:44:55.539Z,0
2019-05-12T00:45:55.249Z,0
2019-05-12T00:46:57.564Z,0
2019-05-12T00:47:58.910Z,0
2019-05-12T00:48:58.601Z,0
2019-05-12T00:50:00.718Z,0
2019-05-12T00:50:59.549Z,0
2019-05-12T00:51:59.797Z,0
2019-05-12T00:52:59.812Z,0
2019-05-12T00:53:59.349Z,0
2019-05-12T00:55:00.066Z,0
2019-05-12T00:56:00.456Z,0
2019-05-12T00:57:00.568Z,0
2019-05-12T00:58:03.262Z,0
2019-05-12T00:59:03.553Z,0
2019-05-12T01:00:04.269Z,0
2019-05-12T01:01:07.950Z,0
2019-05-12T01:02:04.309Z,0
2019-05-12T01:03:04.749Z,0
2019-05-12T01:04:04.506Z,0
2019-05-12T01:05:04.879Z,0
2019-05-12T01:06:04.481Z,0
2019-05-12T01:07:09.471Z,0
2019-05-12T01:08:09.740Z,0
2019-05-12T01:09:09.115Z,0
2019-05-12T01:10:14.026Z,0
2019-05-12T01:11:09.020Z,0
2019-05-12T01:12:09.818Z,0
2019-05-12T01:13:09.423Z,0
2019-05-12T01:14:09.826Z,0
2019-05-12T01:15:10.232Z,0
2019-05-12T01:16:13.539Z,0
2019-05-12T01:17:10.934Z,0
2019-05-12T01:18:11.337Z,0
2019-05-12T01:19:14.674Z,0
2019-05-12T01:20:14.553Z,0
2019-05-12T01:21:14.803Z,0
2019-05-12T01:22:14.551Z,0
2019-05-12T01:23:14.674Z,0
2019-05-12T01:24:19.767Z,0
2019-05-12T01:25:17.580Z,0
2019-05-12T01:26:19.588Z,0
2019-05-12T01:27:19.580Z,0
2019-05-12T01:28:19.594Z,0
2019-05-12T01:29:19.997Z,0
2019-05-12T01:30:20.111Z,0
2019-05-12T01:31:23.209Z,0
2019-05-12T01:32:23.908Z,0
2019-05-12T01:33:24.540Z,0
2019-05-12T01:34:23.952Z,0
2019-05-12T01:35:24.256Z,0
2019-05-12T01:36:24.398Z,0
2019-05-12T01:37:23.822Z,0
2019-05-12T01:38:24.212Z,0
2019-05-12T01:39:24.655Z,0
2019-05-12T01:40:28.175Z,0
2019-05-12T01:41:28.796Z,0
2019-05-12T01:42:28.947Z,0
2019-05-12T01:43:33.024Z,0
2019-05-12T01:44:29.092Z,0
2019-05-12T01:45:29.139Z,0
2019-05-12T01:46:28.914Z,0
2019-05-12T01:47:29.610Z,0
2019-05-12T01:48:30.322Z,0
2019-05-12T01:49:30.749Z,0
2019-05-12T01:50:33.432Z,0
2019-05-12T01:51:34.129Z,0
2019-05-12T01:52:33.858Z,0
2019-05-12T01:53:34.060Z,0
2019-05-12T01:54:34.712Z,0
2019-05-12T01:55:34.744Z,0
2019-05-12T01:56:35.150Z,0
2019-05-12T01:57:38.203Z,0
2019-05-12T01:58:38.309Z,0
2019-05-12T01:59:38.108Z,0
2019-05-12T02:00:39.509Z,0
2019-05-12T02:01:39.371Z,0
2019-05-12T02:02:39.510Z,0
2019-05-12T02:03:39.070Z,0
2019-05-12T02:04:39.080Z,0
2019-05-12T02:05:39.219Z,0
2019-05-12T02:06:39.905Z,0
2019-05-12T02:07:40.600Z,0
2019-05-12T02:08:40.728Z,0
2019-05-12T02:09:44.284Z,0
2019-05-12T02:10:44.044Z,0
2019-05-12T02:11:43.578Z,0
2019-05-12T02:12:45.206Z,0
2019-05-12T02:13:43.866Z,0
2019-05-12T02:14:44.266Z,0
2019-05-12T02:15:44.671Z,0
2019-05-12T02:16:45.057Z,0
2019-05-12T02:17:47.885Z,0
2019-05-12T02:18:49.096Z,0
2019-05-12T02:19:49.132Z,0
2019-05-12T02:20:48.937Z,0
2019-05-12T02:21:49.597Z,0
2019-05-12T02:22:50.004Z,0
2019-05-12T02:23:50.413Z,0
2019-05-12T02:24:50.512Z,0
2019-05-12T02:25:50.913Z,0
2019-05-12T02:26:54.155Z,0
2019-05-12T02:27:53.209Z,0
2019-05-12T02:28:55.489Z,0
2019-05-12T02:29:54.646Z,0
2019-05-12T02:31:04.403Z,0
2019-05-12T02:31:58.918Z,0
2019-05-12T02:33:10.638Z,0
2019-05-12T02:33:56.329Z,0
2019-05-12T02:35:00.043Z,0
2019-05-12T02:36:04.304Z,0
2019-05-12T02:37:04.926Z,0
2019-05-12T02:38:04.676Z,0
2019-05-12T02:39:05.190Z,0
2019-05-12T02:40:04.428Z,0
2019-05-12T02:41:00.841Z,0
2019-05-12T02:42:04.877Z,0
2019-05-12T02:43:06.384Z,0
2019-05-12T02:44:06.046Z,0
2019-05-12T02:45:05.767Z,0
2019-05-12T02:46:05.427Z,0
2019-05-12T02:47:05.911Z,0
2019-05-12T02:48:05.687Z,0
2019-05-12T02:49:05.646Z,0
2019-05-12T02:50:05.629Z,0
2019-05-12T02:51:06.119Z,0
2019-05-12T02:52:05.745Z,0
2019-05-12T02:53:06.595Z,0
2019-05-12T02:54:14.122Z,0
2019-05-12T02:55:20.220Z,0
2019-05-12T02:56:10.896Z,0
2019-05-12T02:57:10.943Z,0
2019-05-12T02:58:14.841Z,0
2019-05-12T02:59:11.441Z,0
2019-05-12T03:00:11.416Z,0
2019-05-12T03:01:15.695Z,0
2019-05-12T03:02:15.864Z,0
2019-05-12T03:03:20.255Z,0
2019-05-12T03:04:19.634Z,0
2019-05-12T03:05:20.065Z,0
2019-05-12T03:06:16.156Z,0
2019-05-12T03:07:25.898Z,0
2019-05-12T03:08:16.268Z,0
2019-05-12T03:09:15.956Z,0
2019-05-12T03:10:19.642Z,0
2019-05-12T03:11:20.337Z,0
2019-05-12T03:12:19.992Z,0
2019-05-12T03:13:20.598Z,0
2019-05-12T03:14:21.023Z,0
2019-05-12T03:15:25.748Z,0
2019-05-12T03:16:21.422Z,0
2019-05-12T03:17:20.947Z,0
2019-05-12T03:18:25.685Z,0
2019-05-12T03:19:25.473Z,0
2019-05-12T03:20:25.926Z,0
2019-05-12T03:21:25.523Z,0
2019-05-12T03:22:25.457Z,0
2019-05-12T03:23:30.316Z,0
2019-05-12T03:24:30.577Z,0
2019-05-12T03:25:45.214Z,0
2019-05-12T03:26:30.059Z,0
2019-05-12T03:27:30.984Z,0
2019-05-12T03:28:30.594Z,0
2019-05-12T03:29:26.304Z,0
2019-05-12T03:30:38.033Z,0
2019-05-12T03:31:48.374Z,0
2019-05-12T03:32:47.150Z,0
2019-05-12T03:34:00.562Z,0
2019-05-12T03:34:47.252Z,0
2019-05-12T03:36:17.714Z,0
2019-05-12T03:37:07.497Z,0
2019-05-12T03:37:50.878Z,0
2019-05-12T03:38:50.045Z,0
2019-05-12T03:39:45.272Z,0
2019-05-12T03:40:50.803Z,0
2019-05-12T03:41:45.478Z,0
2019-05-12T03:42:49.590Z,0
2019-05-12T03:43:50.106Z,0
2019-05-12T03:44:46.197Z,0
2019-05-12T03:45:50.667Z,0
2019-05-12T03:46:46.516Z,0
2019-05-12T03:47:50.624Z,0
2019-05-12T03:48:46.371Z,0
2019-05-12T03:49:46.081Z,0
2019-05-12T03:50:53.894Z,0
2019-05-12T03:51:54.054Z,0
2019-05-12T03:52:50.979Z,0
2019-05-12T03:53:51.384Z,0
2019-05-12T03:54:51.345Z,0
2019-05-12T03:56:00.513Z,0
2019-05-12T03:56:50.746Z,0
2019-05-12T03:57:50.551Z,0
2019-05-12T03:58:53.757Z,0
2019-05-12T03:59:54.296Z,0
2019-05-12T04:00:56.011Z,0
2019-05-12T04:01:56.131Z,0
2019-05-12T04:02:56.657Z,0
2019-05-12T04:03:59.385Z,0
2019-05-12T04:04:56.327Z,0
2019-05-12T04:05:56.616Z,0
2019-05-12T04:06:59.861Z,0
2019-05-12T04:07:59.878Z,0
2019-05-12T04:09:00.237Z,0
2019-05-12T04:10:04.686Z,0
2019-05-12T04:11:05.523Z,0
2019-05-12T04:12:00.321Z,0
2019-05-12T04:13:04.168Z,0
2019-05-12T04:14:01.365Z,0
2019-05-12T04:15:00.845Z,0
2019-05-12T04:16:06.061Z,0
2019-05-12T04:17:04.658Z,0
2019-05-12T04:18:06.084Z,0
2019-05-12T04:19:06.414Z,0
2019-05-12T04:20:05.976Z,0
2019-05-12T04:21:05.841Z,0
2019-05-12T04:22:05.700Z,0
2019-05-12T04:23:06.904Z,0
2019-05-12T04:24:10.592Z,0
2019-05-12T04:25:14.458Z,0
2019-05-12T04:26:30.452Z,0
2019-05-12T04:27:14.635Z,0
2019-05-12T04:28:10.481Z,0
2019-05-12T04:29:15.038Z,5.63
2019-05-12T04:30:14.094Z,5.63
2019-05-12T04:31:11.243Z,5.63
2019-05-12T04:32:14.304Z,5.63
2019-05-12T04:33:16.409Z,5.63
2019-05-12T04:34:21.165Z,5.63
2019-05-12T04:35:16.069Z,5.63
2019-05-12T04:36:20.242Z,5.63
2019-05-12T04:37:15.548Z,5.63
2019-05-12T04:38:20.289Z,5.63
2019-05-12T04:39:19.995Z,5.63
2019-05-12T04:40:24.481Z,5.63
2019-05-12T04:41:26.383Z,5.63
2019-05-12T04:42:24.809Z,5.63
2019-05-12T04:43:25.760Z,5.63
2019-05-12T04:44:26.107Z,5.63
2019-05-12T04:45:21.515Z,5.63
2019-05-12T04:46:25.583Z,11.25
2019-05-12T04:47:25.641Z,11.25
2019-05-12T04:48:35.331Z,11.25
2019-05-12T04:49:30.153Z,11.25
2019-05-12T04:50:29.684Z,11.25
2019-05-12T04:51:26.416Z,11.25
2019-05-12T04:52:29.972Z,11.25
2019-05-12T04:53:26.191Z,11.25
2019-05-12T04:54:29.805Z,11.25
2019-05-12T04:55:30.720Z,11.25
2019-05-12T04:56:36.597Z,11.25
2019-05-12T04:57:36.734Z,11.25
2019-05-12T04:58:36.323Z,11.25
2019-05-12T04:59:34.453Z,11.25
2019-05-12T05:00:36.286Z,11.25
2019-05-12T05:01:34.574Z,11.25
2019-05-12T05:02:36.702Z,11.25
2019-05-12T05:03:36.319Z,16.88
2019-05-12T05:04:35.357Z,16.88
2019-05-12T05:05:36.298Z,16.88
2019-05-12T05:06:39.670Z,16.88
2019-05-12T05:07:36.198Z,16.88
2019-05-12T05:08:40.370Z,16.88
2019-05-12T05:09:37.054Z,16.88
2019-05-12T05:10:41.083Z,16.88
2019-05-12T05:11:41.461Z,16.88
2019-05-12T05:12:40.398Z,22.5
2019-05-12T05:13:45.131Z,22.5
2019-05-12T05:14:40.945Z,22.5
2019-05-12T05:15:41.224Z,22.5
2019-05-12T05:16:40.831Z,22.5
2019-05-12T05:17:43.764Z,22.5
2019-05-12T05:18:43.767Z,22.5
2019-05-12T05:19:44.689Z,22.5
2019-05-12T05:20:45.555Z,16.88
2019-05-12T05:21:45.210Z,16.88
2019-05-12T05:22:44.325Z,16.88
2019-05-12T05:23:45.264Z,16.88
2019-05-12T05:24:45.679Z,16.88
2019-05-12T05:25:46.092Z,16.88
2019-05-12T05:26:51.283Z,16.88
2019-05-12T05:27:46.677Z,16.88
2019-05-12T05:28:49.110Z,16.88
2019-05-12T05:29:50.582Z,16.88
2019-05-12T05:30:49.983Z,16.88
2019-05-12T05:31:49.796Z,16.88
2019-05-12T05:32:50.045Z,16.88
2019-05-12T05:33:50.337Z,16.88
2019-05-12T05:35:03.553Z,16.88
2019-05-12T05:35:55.992Z,22.5
2019-05-12T05:36:56.062Z,22.5
2019-05-12T05:37:56.203Z,22.5
2019-05-12T05:39:01.561Z,22.5
2019-05-12T05:40:04.642Z,22.5
2019-05-12T05:40:54.764Z,22.5
2019-05-12T05:42:04.610Z,28.13
2019-05-12T05:42:54.811Z,28.13
2019-05-12T05:44:08.693Z,28.13
2019-05-12T05:44:59.463Z,28.13
2019-05-12T05:46:19.072Z,33.75
2019-05-12T05:47:09.641Z,33.75
2019-05-12T05:48:09.644Z,33.75
2019-05-12T05:49:00.231Z,39.38
2019-05-12T05:49:59.350Z,39.38
2019-05-12T05:51:04.827Z,39.38
2019-05-12T05:52:08.820Z,39.38
2019-05-12T05:53:00.939Z,39.38
2019-05-12T05:54:09.117Z,39.38
2019-05-12T05:55:05.612Z,39.38
2019-05-12T05:56:10.895Z,39.38
2019-05-12T05:57:19.927Z,39.38
2019-05-12T05:58:09.989Z,39.38
2019-05-12T05:59:09.949Z,39.38
2019-05-12T06:00:07.009Z,39.38
2019-05-12T06:01:19.254Z,45
2019-05-12T06:02:10.702Z,45
2019-05-12T06:03:14.504Z,45
2019-05-12T06:04:25.169Z,45
2019-05-12T06:05:19.846Z,45
2019-05-12T06:06:25.987Z,45
2019-05-12T06:07:16.678Z,45
2019-05-12T06:08:30.437Z,45
2019-05-12T06:09:20.431Z,45
2019-05-12T06:10:20.229Z,45
2019-05-12T06:11:40.106Z,45
2019-05-12T06:12:25.632Z,45
2019-05-12T06:13:27.160Z,45
2019-05-12T06:14:34.706Z,50.63
2019-05-12T06:15:34.581Z,50.63
2019-05-12T06:16:39.294Z,50.63
2019-05-12T06:17:34.267Z,50.63
2019-05-12T06:18:34.889Z,50.63
2019-05-12T06:19:36.717Z,50.63
2019-05-12T06:20:37.633Z,50.63
2019-05-12T06:21:44.112Z,50.63
2019-05-12T06:22:34.982Z,50.63
2019-05-12T06:23:45.298Z,50.63
2019-05-12T06:24:38.716Z,50.63
2019-05-12T06:26:04.294Z,50.63
2019-05-12T06:27:00.714Z,50.63
2019-05-12T06:27:51.011Z,50.63
2019-05-12T06:28:50.414Z,50.63
2019-05-12T06:29:43.836Z,50.63
2019-05-12T06:30:50.146Z,50.63
2019-05-12T06:31:45.520Z,50.63
2019-05-12T06:32:47.285Z,56.25
2019-05-12T06:33:50.163Z,56.25
2019-05-12T06:34:43.354Z,56.25
2019-05-12T06:35:50.854Z,56.25
2019-05-12T06:36:44.957Z,56.25
2019-05-12T06:37:46.363Z,56.25
2019-05-12T06:38:50.973Z,56.25
2019-05-12T06:39:44.664Z,61.88
2019-05-12T06:40:55.088Z,61.88
2019-05-12T06:41:44.659Z,61.88
2019-05-12T06:42:48.293Z,61.88
2019-05-12T06:43:55.049Z,67.5
2019-05-12T06:44:48.835Z,67.5
2019-05-12T06:45:56.563Z,67.5
2019-05-12T06:46:46.247Z,67.5
2019-05-12T06:48:03.357Z,73.13
2019-05-12T06:49:00.298Z,73.13
2019-05-12T06:49:57.988Z,73.13
2019-05-12T06:50:55.386Z,73.13
2019-05-12T06:51:53.336Z,78.75
2019-05-12T06:52:59.849Z,78.75
2019-05-12T06:53:50.245Z,78.75
2019-05-12T06:55:05.272Z,84.38
2019-05-12T06:55:55.102Z,84.38
2019-05-12T06:57:10.432Z,84.38
2019-05-12T06:58:01.084Z,84.38
2019-05-12T06:58:54.907Z,84.38
2019-05-12T07:00:05.400Z,84.38
2019-05-12T07:00:54.797Z,84.38
2019-05-12T07:02:05.974Z,84.38
2019-05-12T07:03:06.355Z,84.38
2019-05-12T07:04:00.468Z,84.38
2019-05-12T07:05:10.040Z,84.38
2019-05-12T07:06:00.858Z,84.38
2019-05-12T07:07:10.931Z,84.38
2019-05-12T07:08:04.489Z,90
2019-05-12T07:09:32.488Z,84.38
2019-05-12T07:10:57.288Z,90
2019-05-12T07:11:25.521Z,95.63
2019-05-12T07:12:32.554Z,95.63
2019-05-12T07:13:39.521Z,101.25
2019-05-12T07:14:39.803Z,106.88
2019-05-12T07:15:29.209Z,106.88
2019-05-12T07:16:41.208Z,112.5
2019-05-12T07:17:35.376Z,112.5
2019-05-12T07:18:43.695Z,112.5
2019-05-12T07:19:38.905Z,112.5
2019-05-12T07:20:38.574Z,106.88
2019-05-12T07:21:38.848Z,106.88
2019-05-12T07:22:54.776Z,106.88
2019-05-12T07:23:40.911Z,112.5
2019-05-12T07:24:34.596Z,106.88
2019-05-12T07:25:49.767Z,112.5
2019-05-12T07:26:35.899Z,118.13
2019-05-12T07:28:14.375Z,118.13
2019-05-12T07:28:43.315Z,112.5
2019-05-12T07:29:36.088Z,112.5
2019-05-12T07:30:39.959Z,112.5
2019-05-12T07:31:36.361Z,118.13
2019-05-12T07:32:39.881Z,118.13
2019-05-12T07:33:55.867Z,118.13
2019-05-12T07:34:39.874Z,112.5
2019-05-12T07:35:39.889Z,112.5
2019-05-12T07:36:40.175Z,112.5
2019-05-12T07:37:40.734Z,118.13
2019-05-12T07:38:44.622Z,118.13
2019-05-12T07:39:54.652Z,123.75
2019-05-12T07:40:49.945Z,123.75
2019-05-12T07:41:55.418Z,123.75
2019-05-12T07:42:50.498Z,123.75
2019-05-12T07:43:44.620Z,123.75
2019-05-12T07:44:57.859Z,123.75
2019-05-12T07:45:45.090Z,123.75
2019-05-12T07:46:59.686Z,129.38
2019-05-12T07:47:46.439Z,129.38
2019-05-12T07:48:59.825Z,129.38
2019-05-12T07:49:55.077Z,135
2019-05-12T07:50:50.105Z,129.38
2019-05-12T07:51:55.944Z,129.38
2019-05-12T07:52:50.210Z,129.38
2019-05-12T07:53:59.166Z,129.38
2019-05-12T07:55:00.911Z,129.38
2019-05-12T07:56:00.356Z,129.38
2019-05-12T07:56:55.389Z,123.75
2019-05-12T07:58:24.846Z,129.38
2019-05-12T07:59:09.961Z,123.75
2019-05-12T07:59:59.604Z,123.75
2019-05-12T08:01:07.975Z,123.75
2019-05-12T08:02:09.320Z,123.75
2019-05-12T08:02:55.460Z,123.75
2019-05-12T08:04:01.101Z,118.13
2019-05-12T08:04:59.348Z,123.75
2019-05-12T08:06:04.465Z,118.13
2019-05-12T08:07:00.630Z,118.13
2019-05-12T08:08:10.439Z,118.13
2019-05-12T08:09:09.696Z,112.5
2019-05-12T08:09:59.056Z,112.5
2019-05-12T08:11:06.300Z,112.5
2019-05-12T08:12:00.012Z,112.5
2019-05-12T08:13:10.395Z,118.13
2019-05-12T08:14:00.514Z,123.75
2019-05-12T08:15:09.433Z,123.75
2019-05-12T08:17:24.960Z,129.38
2019-05-12T08:18:19.614Z,135
2019-05-12T08:19:14.731Z,135
2019-05-12T08:20:10.325Z,129.38
2019-05-12T08:21:11.125Z,123.75
2019-05-12T08:22:13.541Z,123.75
2019-05-12T08:23:23.375Z,123.75
2019-05-12T08:24:15.081Z,106.88
2019-05-12T08:25:18.670Z,118.13
2019-05-12T08:26:29.899Z,101.25
2019-05-12T08:27:24.954Z,106.88
2019-05-12T08:28:53.361Z,106.88
2019-05-12T08:29:29.626Z,101.25
2019-05-12T08:30:19.533Z,101.25
2019-05-12T08:31:23.315Z,106.88
2019-05-12T08:32:33.830Z,101.25
2019-05-12T08:33:25.905Z,101.25
2019-05-12T08:34:20.847Z,106.88
2019-05-12T08:35:37.664Z,112.5
2019-05-12T08:36:34.580Z,112.5
2019-05-12T08:37:35.003Z,118.13
2019-05-12T08:38:36.126Z,106.88
2019-05-12T08:39:39.518Z,112.5
2019-05-12T08:40:39.646Z,106.88
2019-05-12T08:41:34.448Z,118.13
2019-05-12T08:42:34.619Z,118.13
2019-05-12T08:43:35.192Z,112.5
2019-05-12T08:44:51.367Z,106.88
2019-05-12T08:45:49.928Z,123.75
2019-05-12T08:46:36.872Z,118.13
2019-05-12T08:47:49.693Z,112.5
2019-05-12T08:48:41.506Z,123.75
2019-05-12T08:50:05.887Z,135
2019-05-12T08:50:51.170Z,135
2019-05-12T08:51:41.455Z,118.13
2019-05-12T08:52:49.873Z,123.75
2019-05-12T08:53:44.527Z,123.75
2019-05-12T08:54:49.190Z,123.75
2019-05-12T08:55:49.182Z,135
2019-05-12T08:56:44.497Z,129.38
2019-05-12T08:57:59.745Z,123.75
2019-05-12T08:59:04.504Z,135
2019-05-12T08:59:44.845Z,140.63
2019-05-12T09:00:56.235Z,146.25
2019-05-12T09:01:49.308Z,146.25
2019-05-12T09:02:54.318Z,140.63
2019-05-12T09:03:49.706Z,129.38
2019-05-12T09:04:55.747Z,123.75
2019-05-12T09:05:55.273Z,112.5
2019-05-12T09:06:56.183Z,101.25
2019-05-12T09:07:54.289Z,118.13
2019-05-12T09:09:00.498Z,112.5
2019-05-12T09:09:49.919Z,106.88
2019-05-12T09:10:52.953Z,112.5
2019-05-12T09:11:50.883Z,118.13
2019-05-12T09:12:51.288Z,129.38
2019-05-12T09:14:05.779Z,129.38
2019-05-12T09:14:59.853Z,129.38
2019-05-12T09:15:54.405Z,135
2019-05-12T09:17:07.304Z,129.38
2019-05-12T09:18:10.391Z,135
2019-05-12T09:18:55.531Z,129.38
2019-05-12T09:20:08.516Z,135
2019-05-12T09:21:09.054Z,135
2019-05-12T09:21:56.189Z,123.75
2019-05-12T09:23:05.661Z,129.38
2019-05-12T09:24:01.330Z,135
2019-05-12T09:25:08.179Z,135
2019-05-12T09:26:09.668Z,135
2019-05-12T09:27:08.577Z,140.63
2019-05-12T09:28:03.566Z,146.25
2019-05-12T09:29:08.564Z,146.25
2019-05-12T09:30:14.129Z,163.13
2019-05-12T09:31:05.553Z,168.75
2019-05-12T09:32:09.306Z,163.13
2019-05-12T09:33:09.471Z,146.25
2019-05-12T09:34:16.583Z,163.13
2019-05-12T09:35:09.330Z,146.25
2019-05-12T09:36:06.023Z,151.88
2019-05-12T09:37:15.405Z,146.25
2019-05-12T09:38:20.569Z,163.13
2019-05-12T09:39:16.991Z,163.13
2019-05-12T09:40:10.227Z,146.25
2019-05-12T09:41:19.104Z,146.25
2019-05-12T09:42:14.029Z,140.63
2019-05-12T09:43:24.138Z,168.75
2019-05-12T09:44:15.329Z,168.75
2019-05-12T09:45:21.164Z,168.75
2019-05-12T09:46:15.230Z,174.38
2019-05-12T09:47:34.279Z,168.75
2019-05-12T09:48:25.066Z,163.13
2019-05-12T09:49:16.466Z,163.13
2019-05-12T09:50:28.672Z,157.5
2019-05-12T09:51:23.805Z,157.5
2019-05-12T09:52:38.616Z,174.38
2019-05-12T09:53:25.644Z,180
2019-05-12T09:54:25.787Z,185.63
2019-05-12T09:55:22.696Z,180
2019-05-12T09:56:20.371Z,185.63
2019-05-12T09:57:20.245Z,180
2019-05-12T09:58:39.318Z,174.38
2019-05-12T09:59:38.787Z,163.13
2019-05-12T10:00:24.599Z,157.5
2019-05-12T10:01:29.145Z,151.88
2019-05-12T10:02:34.468Z,157.5
2019-05-12T10:03:25.003Z,157.5
2019-05-12T10:04:32.934Z,135
2019-05-12T10:05:30.389Z,146.25
2019-05-12T10:06:33.895Z,146.25
2019-05-12T10:07:27.622Z,151.88
2019-05-12T10:08:35.521Z,163.13
2019-05-12T10:09:35.762Z,163.13
2019-05-12T10:10:39.979Z,157.5
2019-05-12T10:11:35.349Z,163.13
2019-05-12T10:12:36.383Z,168.75
2019-05-12T10:13:40.524Z,163.13
2019-05-12T10:14:31.208Z,168.75
2019-05-12T10:15:39.305Z,157.5
2019-05-12T10:16:33.379Z,163.13
2019-05-12T10:17:43.379Z,157.5
2019-05-12T10:18:35.028Z,151.88
2019-05-12T10:19:34.206Z,135
2019-05-12T10:20:44.794Z,123.75
2019-05-12T10:21:35.969Z,118.13
2019-05-12T10:22:40.915Z,112.5
2019-05-12T10:23:40.907Z,106.88
2019-05-12T10:24:55.082Z,106.88
2019-05-12T10:25:41.279Z,123.75
2019-05-12T10:26:41.056Z,123.75
2019-05-12T10:27:49.434Z,129.38
2019-05-12T10:28:43.425Z,123.75
2019-05-12T10:29:43.675Z,118.13
2019-05-12T10:30:40.214Z,118.13
2019-05-12T10:31:50.098Z,112.5
2019-05-12T10:32:43.469Z,112.5
2019-05-12T10:34:53.336Z,112.5
2019-05-12T10:35:46.129Z,101.25
2019-05-12T10:36:54.237Z,84.38
2019-05-12T10:37:49.821Z,90
2019-05-12T10:38:48.902Z,106.88
2019-05-12T10:39:49.241Z,101.25
2019-05-12T10:40:53.737Z,95.63
2019-05-12T10:41:50.566Z,95.63
2019-05-12T10:42:59.965Z,95.63
2019-05-12T10:43:57.626Z,101.25
2019-05-12T10:44:59.913Z,101.25
2019-05-12T10:45:50.610Z,95.63
2019-05-12T10:46:53.829Z,101.25
2019-05-12T10:47:51.127Z,101.25
2019-05-12T10:48:53.793Z,118.13
2019-05-12T10:49:53.685Z,123.75
2019-05-12T10:50:55.170Z,123.75
2019-05-12T10:51:59.249Z,123.75
2019-05-12T10:52:55.470Z,118.13
2019-05-12T10:54:13.014Z,112.5
2019-05-12T10:54:54.134Z,106.88
2019-05-12T10:55:54.760Z,101.25
2019-05-12T10:56:55.191Z,106.88
2019-05-12T10:58:07.464Z,118.13
2019-05-12T10:58:58.970Z,112.5
2019-05-12T11:00:04.342Z,112.5
2019-05-12T11:01:04.172Z,129.38
2019-05-12T11:02:04.739Z,123.75
2019-05-12T11:03:01.406Z,140.63
2019-05-12T11:04:09.407Z,157.5
2019-05-12T11:04:59.870Z,157.5
2019-05-12T11:06:17.407Z,129.38
2019-05-12T11:07:05.169Z,112.5
2019-05-12T11:08:06.272Z,129.38
2019-05-12T11:09:06.077Z,146.25
2019-05-12T11:10:02.889Z,140.63
2019-05-12T11:11:14.472Z,123.75
2019-05-12T11:12:05.021Z,118.13
2019-05-12T11:13:08.149Z,118.13
2019-05-12T11:14:09.136Z,135
2019-05-12T11:15:08.430Z,151.88
2019-05-12T11:16:05.873Z,163.13
2019-05-12T11:17:13.747Z,163.13
2019-05-12T11:18:06.464Z,151.88
2019-05-12T11:19:19.187Z,146.25
2019-05-12T11:20:09.939Z,157.5
2019-05-12T11:21:10.565Z,174.38
2019-05-12T11:22:10.137Z,191.25
2019-05-12T11:23:10.419Z,191.25
2019-05-12T11:24:10.836Z,185.63
2019-05-12T11:25:14.886Z,191.25
2019-05-12T11:26:11.570Z,191.25
2019-05-12T11:27:13.399Z,185.63
2019-05-12T11:28:14.459Z,196.88
2019-05-12T11:29:15.308Z,225
2019-05-12T11:30:15.525Z,247.5
2019-05-12T11:31:13.678Z,241.88
2019-05-12T11:32:17.440Z,241.88
2019-05-12T11:33:15.997Z,230.63
2019-05-12T11:34:16.483Z,225
2019-05-12T11:35:15.886Z,230.63
2019-05-12T11:36:16.004Z,236.25
2019-05-12T11:37:16.190Z,225
2019-05-12T11:38:19.010Z,213.75
2019-05-12T11:39:19.814Z,208.13
2019-05-12T11:40:20.180Z,191.25
2019-05-12T11:41:32.910Z,191.25
2019-05-12T11:42:20.199Z,202.5
2019-05-12T11:43:21.482Z,202.5
2019-05-12T11:44:24.116Z,180
2019-05-12T11:45:24.611Z,163.13
2019-05-12T11:46:23.761Z,140.63
2019-05-12T11:47:39.824Z,129.38
2019-05-12T11:48:29.225Z,129.38
2019-05-12T11:49:39.177Z,129.38
2019-05-12T11:50:29.604Z,135
2019-05-12T11:51:39.538Z,135
2019-05-12T11:52:34.872Z,129.38
2019-05-12T11:53:41.672Z,129.38
2019-05-12T11:54:33.679Z,129.38
2019-05-12T11:55:43.683Z,118.13
2019-05-12T11:56:40.225Z,112.5
2019-05-12T11:57:41.137Z,106.88
2019-05-12T11:58:34.145Z,112.5
2019-05-12T11:59:34.403Z,106.88
2019-05-12T12:00:35.093Z,106.88
2019-05-12T12:01:39.495Z,123.75
2019-05-12T12:02:43.615Z,123.75
2019-05-12T12:03:38.799Z,140.63
2019-05-12T12:04:39.632Z,140.63
2019-05-12T12:05:39.685Z,129.38
2019-05-12T12:06:39.950Z,123.75
2019-05-12T12:07:50.733Z,129.38
2019-05-12T12:08:54.925Z,123.75
2019-05-12T12:10:04.601Z,118.13
2019-05-12T12:11:00.015Z,123.75
2019-05-12T12:12:07.562Z,123.75
2019-05-12T12:13:04.600Z,118.13
2019-05-12T12:14:00.168Z,112.5
2019-05-12T12:15:05.318Z,106.88
2019-05-12T12:16:00.366Z,101.25
2019-05-12T12:17:06.355Z,112.5
2019-05-12T12:18:03.726Z,106.88
2019-05-12T12:19:25.938Z,84.38
2019-05-12T12:20:33.849Z,84.38
2019-05-12T12:21:24.861Z,84.38
2019-05-12T12:22:25.412Z,84.38
2019-05-12T12:23:27.344Z,78.75
2019-05-12T12:24:31.144Z,78.75
2019-05-12T12:25:28.906Z,84.38
2019-05-12T12:26:29.953Z,78.75
2019-05-12T12:27:25.167Z,84.38
2019-05-12T12:28:24.663Z,101.25
2019-05-12T12:29:24.907Z,95.63
2019-05-12T12:30:35.190Z,90
2019-05-12T12:31:29.410Z,78.75
2019-05-12T12:32:35.310Z,67.5
2019-05-12T12:33:30.850Z,73.13
2019-05-12T12:34:44.128Z,84.38
2019-05-12T12:35:34.643Z,90
2019-05-12T12:36:34.315Z,73.13
2019-05-12T12:37:38.634Z,78.75
2019-05-12T12:38:30.756Z,84.38
2019-05-12T12:39:34.139Z,78.75
2019-05-12T12:40:34.392Z,73.13
2019-05-12T12:41:34.932Z,73.13
2019-05-12T12:42:41.794Z,78.75
2019-05-12T12:43:35.925Z,84.38
2019-05-12T12:44:35.188Z,84.38
2019-05-12T12:45:40.019Z,90
2019-05-12T12:46:39.030Z,90
2019-05-12T12:47:43.377Z,90
2019-05-12T12:48:44.359Z,90
2019-05-12T12:49:44.328Z,90
2019-05-12T12:50:45.218Z,90
2019-05-12T12:51:40.034Z,90
2019-05-12T12:52:48.662Z,90
2019-05-12T12:53:40.265Z,90
2019-05-12T12:54:39.651Z,90
2019-05-12T12:55:45.087Z,84.38
2019-05-12T12:56:46.063Z,84.38
2019-05-12T12:57:46.194Z,73.13
2019-05-12T12:58:45.585Z,67.5
2019-05-12T12:59:55.963Z,67.5
2019-05-12T13:01:04.132Z,67.5
2019-05-12T13:01:49.387Z,67.5
2019-05-12T13:02:53.140Z,67.5
2019-05-12T13:03:48.687Z,67.5
2019-05-12T13:04:59.027Z,73.13
2019-05-12T13:05:46.012Z,78.75
2019-05-12T13:06:46.431Z,84.38
2019-05-12T13:07:49.473Z,90
2019-05-12T13:08:50.063Z,95.63
2019-05-12T13:09:54.839Z,101.25
2019-05-12T13:11:00.124Z,106.88
2019-05-12T13:11:50.814Z,112.5
2019-05-12T13:12:59.286Z,118.13
2019-05-12T13:13:50.922Z,118.13
2019-05-12T13:14:54.982Z,118.13
2019-05-12T13:15:54.726Z,118.13
2019-05-12T13:16:59.433Z,118.13
2019-05-12T13:17:58.008Z,118.13
2019-05-12T13:18:54.200Z,123.75
2019-05-12T13:20:07.757Z,123.75
2019-05-12T13:20:57.982Z,129.38
2019-05-12T13:21:58.691Z,129.38
2019-05-12T13:22:59.179Z,123.75
2019-05-12T13:23:59.178Z,112.5
2019-05-12T13:25:08.409Z,101.25
2019-05-12T13:26:06.539Z,101.25
2019-05-12T13:26:59.665Z,95.63
2019-05-12T13:28:01.415Z,101.25
2019-05-12T13:29:09.310Z,112.5
2019-05-12T13:30:02.869Z,106.88
2019-05-12T13:31:25.722Z,95.63
2019-05-12T13:32:04.545Z,101.25
2019-05-12T13:33:03.671Z,101.25
2019-05-12T13:34:09.255Z,90
2019-05-12T13:35:14.686Z,84.38
2019-05-12T13:36:09.920Z,73.13
2019-05-12T13:37:09.239Z,73.13